• Join FlightAware (Why Join?)
  • Login
  • US Flag 
02:41PM EST


 

Airport Tracker/Info


-or-


 

Live Flight TrackerFlight Track Log ✈ N96GT ✈ 19-Mar-2014 ✈ KMHT - KPYM

Flight Track Log - Related Links

Times and Time Zones

All times are in EDT time to prevent confusion due to time zone crossing. See the N96GT flight status page for this flight to view local times or setup timezone preferences in your user account.

Time Position Orientation Groundspeed Altitude Reporting Facility
EDT Latitude Longitude Course Direction KTS MPH feet Rate Location/Type
07:02PM 42.7588 -71.3137 153° Southeast  Level Estimated
07:03PM 42.7267 -71.3220 191° South  Level FlightAware Approximate
07:04PM 42.6947 -71.3304 191° South  Level FlightAware Approximate
07:04PM 42.9167 -71.4333 163° South 93 107 900  Level KA90
07:05PM 42.6626 -71.3387 191° South  Level FlightAware Approximate
07:05PM 42.9167 -71.4167 90° East 90 104 1,200  Level KA90
07:06PM 42.6726 -71.3288 163° South  Level FlightAware Approximate
07:06PM 42.8908 -71.4150 177° South 83 96 2,200  Level Boston Center
07:07PM 42.6414 -71.3156 163° South  Level FlightAware Approximate
07:07PM 42.8706 -71.4025 156° South 82 94 2,700  Level Boston Center
07:08PM 42.6103 -71.3025 163° South  Level FlightAware Approximate
07:08PM 42.8544 -71.3822 137° Southeast 79 91 3,200  Level Boston Center
07:09PM 42.5791 -71.2893 163° South  Level FlightAware Approximate
07:09PM 42.8353 -71.3600 140° Southeast 84 97 3,800  Level Boston Center
07:10PM 42.5480 -71.2762 163° South  Level FlightAware Approximate
07:10PM 42.8169 -71.3358 136° Southeast 92 106 4,000  Level Boston Center
07:11PM 42.7942 -71.3086 139° Southeast 107 123 4,000  Level Boston Center
07:12PM 42.7828 -71.2639 109° East 120 138 4,000  Level Boston Center
07:13PM 42.7742 -71.2203 105° East 121 139 4,000  Level Boston Center
07:14PM 42.7544 -71.1861 128° Southeast 114 131 4,000  Level Boston Center
07:15PM 42.7267 -71.1711 158° South 109 125 4,000  Level Boston Center
07:16PM 42.6953 -71.1558 160° South 111 128 4,000  Level Boston Center
07:17PM 42.6672 -71.1419 160° South 108 124 4,000  Level Boston Center
07:18PM 42.6386 -71.1278 160° South 109 125 4,000  Level Boston Center
07:19PM 42.6167 -71.1167 160° South 106 122 4,000  Level KA90
07:20PM 42.5833 -71.1000 160° South 106 122 4,000  Level KA90
07:21PM 42.5667 -71.0833 144° Southeast 105 121 4,000  Level KA90
07:22PM 42.5333 -71.0667 160° South 104 120 4,000  Level KA90
07:23PM 42.5000 -71.0667 180° South 103 119 4,000  Level KA90
07:24PM 42.4833 -71.0500 144° Southeast 101 116 4,000  Level KA90
07:25PM 42.4500 -71.0333 160° South 104 120 4,000  Level KA90
07:26PM 42.4333 -71.0167 144° Southeast 103 119 4,000  Level KA90
07:27PM 42.4000 -71.0000 160° South 103 119 4,000  Level KA90
07:28PM 42.3833 -70.9833 144° Southeast 110 127 4,000  Level KA90
07:29PM 42.3500 -70.9500 144° Southeast 110 127 4,000  Level KA90
07:30PM 42.3333 -70.9167 124° Southeast 110 127 4,000  Level KA90
07:31PM 42.3167 -70.9000 144° Southeast 109 125 4,000  Level KA90
07:32PM 42.2833 -70.8667 144° Southeast 104 120 4,000  Level KA90
07:33PM 42.2667 -70.8500 143° Southeast 105 121 4,000 -150 Level KA90
07:34PM 42.2333 -70.8500 180° South 111 128 3,700 -333 Descending KA90
07:34PM 42.2203 -70.8475 172° South 111 128 3,500 -462 Descending Boston Center
07:35PM 42.1900 -70.8431 174° South 114 131 3,000 -244 Descending Boston Center
07:36PM 42.1572 -70.8489 188° South 107 123 3,000  Level Boston Center
07:37PM 42.1311 -70.8608 199° South 101 116 3,000  Level Boston Center
07:38PM 42.1194 -70.8669 201° Southwest 106 122 3,000  Level Boston Center
07:38PM 42.1050 -70.8733 198° South 108 124 3,000  Level Boston Center
07:38PM 42.1044 -70.8767 257° West 105 121 3,000  Level Boston Center
07:39PM 42.0781 -70.8897 200° South 107 123 3,000  Level Boston Center
07:39PM 42.0739 -70.8939 217° Southwest 110 127 3,000  Level Boston Center
07:40PM 42.0478 -70.9114 206° Southwest 106 122 3,000  Level Boston Center
07:41PM 42.0236 -70.9253 203° Southwest 106 122 3,000  Level Boston Center
07:41PM 42.0208 -70.9275 211° Southwest 105 121 3,000  Level Boston Center
07:42PM 41.9967 -70.9417 204° Southwest 104 120 3,000  Level Boston Center
07:42PM 41.9936 -70.9442 211° Southwest 107 123 3,000  Level Boston Center
07:43PM 41.9675 -70.9572 200° South 112 129 3,000  Level Boston Center
07:43PM 41.9633 -70.9614 217° Southwest 109 125 3,000  Level Boston Center
07:44PM 41.9425 -70.9742 205° Southwest 110 127 3,000  Level Boston Center
07:44PM 41.9356 -70.9803 213° Southwest 111 128 3,000  Level Boston Center
07:45PM 41.9156 -70.9906 201° Southwest 111 128 3,000  Level Boston Center
07:46PM 41.9069 -70.9958 205° Southwest 112 129 3,000  Level Boston Center
07:46PM 41.8900 -70.9786 143° Southeast 105 121 3,000  Level Boston Center
07:47PM 41.8831 -70.9714 142° Southeast 109 125 3,000  Level Boston Center
07:47PM 41.8669 -70.9531 140° Southeast 106 122 3,000  Level Boston Center
07:48PM 41.8586 -70.9431 138° Southeast 109 125 3,000  Level Boston Center
07:49PM 41.8378 -70.9194 140° Southeast 100 115 3,000  Level Boston Center
07:50PM 41.8203 -70.8981 138° Southeast 88 101 3,000  Level Boston Center
07:51PM 41.8044 -70.8775 136° Southeast 82 94 3,000  Level Boston Center
07:53PM 41.8423 -70.8237 69° East  Level Estimated
08:00PM 41.9000 -70.7167 109° East  Level FlightAware Approximate
08:01PM 41.9090 -70.7288 90° East  Level Estimated
08:02PM 41.9090 -70.7288 109° East  Level Estimated
08:03PM 41.9090 -70.7288 135° Southeast  Level Estimated
08:04PM 41.9090 -70.7288 109° East  Level Estimated
08:05PM 41.9090 -70.7288 135° Southeast  Level Estimated
08:06PM 41.9090 -70.7288 109° East  Level Estimated
08:07PM 41.9090 -70.7288 135° Southeast  Level Estimated
08:08PM 41.9090 -70.7288 109° East  Level Estimated
08:09PM 41.9090 -70.7288 135° Southeast  Level Estimated
08:10PM 41.9090 -70.7288 109° East  Level Estimated